Time;durP1;ratioP1;P1;durP2;ratioP2;P2;SDS_P1;SDS_P2;PMS_P1;PMS_P2;Temp;Humidity;BMP_temperature;BMP_pressure;BME280_temperature;BME280_humidity;BME280_pressure;Samples;Min_cycle;Max_cycle;Signal;HPM_P1;HPM_P2
2021/09/26 00:00:06;;;;;;;;;4.00;4.00;;;;;15.75;74.38;101296.31;5175298;27;8858;-77
2021/09/26 00:03:02;;;;;;;;;5.25;5.25;;;;;15.80;74.39;101307.22;5175239;27;8810;-76
2021/09/26 00:05:58;;;;;;;;;6.50;6.50;;;;;15.76;73.43;101297.13;5161251;27;9544;-75
2021/09/26 00:08:25;;;;;;;;;6.00;6.00;;;;;15.74;73.44;101294.69;5173401;27;8855;-75
2021/09/26 00:11:21;;;;;;;;;3.75;3.75;;;;;15.75;73.72;101292.72;5154213;27;8841;-75
2021/09/26 00:13:50;;;;;;;;;6.00;5.00;;;;;15.66;74.09;101287.25;5164972;27;8823;-77
2021/09/26 00:16:45;;;;;;;;;5.75;5.75;;;;;15.67;73.94;101286.09;5167112;27;8885;-76
2021/09/26 00:19:41;;;;;;;;;4.00;4.00;;;;;15.73;73.72;101295.03;5154249;27;8844;-75
2021/09/26 00:22:37;;;;;;;;;5.75;5.75;;;;;15.68;73.65;101287.72;5153883;27;9148;-76
2021/09/26 00:25:33;;;;;;;;;5.25;5.25;;;;;15.64;73.16;101283.19;5154615;27;8817;-75
2021/09/26 00:28:29;;;;;;;;;7.00;7.00;;;;;15.66;72.26;101283.66;5155077;27;8917;-76
2021/09/26 00:31:24;;;;;;;;;8.00;8.00;;;;;15.71;72.58;101292.56;5140093;27;8829;-76
2021/09/26 00:34:14;;;;;;;;;8.67;8.67;;;;;15.66;72.76;101290.06;5164655;27;8907;-75
2021/09/26 00:37:09;;;;;;;;;6.00;6.00;;;;;15.57;72.95;101287.38;5145476;27;8898;-77
2021/09/26 00:40:06;;;;;;;;;8.00;8.00;;;;;15.51;73.17;101285.97;5173381;27;8839;-77
2021/09/26 00:43:03;;;;;;;;;6.67;6.67;;;;;15.62;72.81;101289.13;5160300;27;9018;-78
2021/09/26 00:46:00;;;;;;;;;7.33;7.33;;;;;15.49;72.91;101279.13;5174731;27;8934;-78
2021/09/26 00:48:56;;;;;;;;;7.00;7.00;;;;;15.58;73.59;101277.03;5176844;27;9060;-78
2021/09/26 00:51:52;;;;;;;;;9.00;9.00;;;;;15.58;73.53;101277.03;5164866;27;9073;-76
2021/09/26 00:54:48;;;;;;;;;8.00;8.00;;;;;15.51;73.65;101276.78;5178247;27;9068;-75
2021/09/26 00:57:16;;;;;;;;;8.67;8.67;;;;;15.55;73.80;101275.72;5141158;27;9017;-75
2021/09/26 01:00:15;;;;;;;;;7.33;7.33;;;;;15.55;74.01;101278.50;5157898;27;9160;-76
2021/09/26 01:03:10;;;;;;;;;9.33;9.33;;;;;15.58;73.83;101277.84;5164305;27;9058;-79
2021/09/26 01:05:38;;;;;;;;;8.33;7.00;;;;;15.63;73.95;101276.78;5166507;27;9140;-77
2021/09/26 01:08:53;;;;;;;;;10.33;10.33;;;;;15.52;74.13;101272.84;5164709;27;9068;-77
2021/09/26 01:12:14;;;;;;;;;11.33;11.33;;;;;15.55;73.95;101270.16;5164675;27;9217;-76
2021/09/26 01:15:31;;;;;;;;;6.33;6.00;;;;;15.60;74.31;101273.88;5148016;27;9175;-76
2021/09/26 01:18:42;;;;;;;;;6.00;6.00;;;;;15.61;74.32;101275.50;5157715;27;9045;-77
2021/09/26 01:21:51;;;;;;;;;11.67;11.67;;;;;15.58;74.07;101282.59;5157551;27;8977;-75
2021/09/26 01:25:08;;;;;;;;;7.67;7.67;;;;;15.70;74.24;101277.00;5157431;27;9073;-76
2021/09/26 01:28:38;;;;;;;;;7.33;7.33;;;;;15.64;74.59;101280.38;5157380;27;9065;-76
2021/09/26 01:31:51;;;;;;;;;12.00;12.00;;;;;15.68;74.49;101278.53;5157927;27;9125;-75
2021/09/26 01:34:53;;;;;;;;;8.00;8.00;;;;;15.45;75.14;101280.97;5157188;27;9134;-75
2021/09/26 01:38:16;;;;;;;;;9.33;9.33;;;;;15.56;75.11;101285.75;5157129;27;9157;-75
2021/09/26 01:41:18;;;;;;;;;9.67;9.67;;;;;15.59;75.08;101284.22;5157113;27;8998;-74
2021/09/26 01:44:55;;;;;;;;;11.00;11.00;;;;;15.56;75.31;101285.75;5165966;27;9248;-76
2021/09/26 01:48:04;;;;;;;;;11.00;11.00;;;;;15.54;75.68;101273.28;5177964;27;8984;-75
2021/09/26 01:51:01;;;;;;;;;8.00;8.00;;;;;15.56;75.50;101265.38;5164670;27;9000;-75
2021/09/26 01:53:57;;;;;;;;;10.00;10.00;;;;;15.55;76.01;101269.34;5177688;27;9003;-75
2021/09/26 01:56:55;;;;;;;;;9.67;9.67;;;;;15.61;75.75;101267.97;5163937;27;9171;-76
2021/09/26 01:59:53;;;;;;;;;7.33;7.33;;;;;15.55;76.33;101260.97;5142482;27;9175;-76
2021/09/26 02:02:50;;;;;;;;;7.67;7.67;;;;;15.49;76.98;101279.13;5142781;27;9055;-76
2021/09/26 02:05:47;;;;;;;;;10.00;10.00;;;;;15.54;76.77;101276.09;5142925;27;9055;-76
2021/09/26 02:08:28;;;;;;;;;12.00;12.00;;;;;15.55;77.21;101274.91;5157627;27;9147;-77
2021/09/26 02:11:26;;;;;;;;;12.67;12.67;;;;;15.51;77.37;101271.22;5156564;27;8989;-75
2021/09/26 02:14:22;;;;;;;;;11.33;11.33;;;;;15.58;77.02;101263.91;5157445;27;9010;-77
2021/09/26 02:17:18;;;;;;;;;9.67;9.67;;;;;15.55;77.42;101264.56;5157220;27;9235;-76
2021/09/26 02:20:17;;;;;;;;;15.33;14.33;;;;;15.55;77.77;101263.75;5156266;27;9886;-75
2021/09/26 02:22:47;;;;;;;;;6.33;6.33;;;;;15.56;77.95;101262.59;5157579;27;9241;-75
2021/09/26 02:25:43;;;;;;;;;14.33;14.33;;;;;15.55;78.25;101258.19;5162641;27;8909;-75
2021/09/26 02:28:40;;;;;;;;;12.00;12.00;;;;;15.49;78.21;101259.63;5172159;27;9931;-74
2021/09/26 02:31:38;;;;;;;;;14.67;14.67;;;;;15.64;78.19;101258.09;5156919;27;9272;-75
2021/09/26 02:34:33;;;;;;;;;13.00;11.67;;;;;15.61;78.34;101251.25;5158385;27;9052;-76
2021/09/26 02:37:29;;;;;;;;;15.67;15.67;;;;;15.68;78.25;101259.03;5153119;27;9222;-75
2021/09/26 02:40:25;;;;;;;;;13.00;12.00;;;;;15.66;78.49;101264.97;5175367;27;9069;-76
2021/09/26 02:43:43;;;;;;;;;10.00;10.00;;;;;15.64;78.58;101267.28;5174978;27;9061;-75
2021/09/26 02:46:45;;;;;;;;;11.33;11.33;;;;;15.66;78.95;101275.31;5175834;27;9862;-75
2021/09/26 02:49:42;;;;;;;;;13.00;13.00;;;;;15.54;79.72;101270.50;5162721;27;9160;-77
2021/09/26 02:52:38;;;;;;;;;11.00;11.00;;;;;15.64;79.26;101270.06;5176597;27;9042;-75
2021/09/26 02:55:35;;;;;;;;;11.33;11.33;;;;;15.72;79.07;101268.28;5169506;27;9152;-76
2021/09/26 02:58:03;;;;;;;;;13.00;13.00;;;;;15.71;79.11;101270.28;5148162;27;9372;-76
2021/09/26 03:00:58;;;;;;;;;12.00;12.00;;;;;15.70;79.04;101265.88;5176597;27;9136;-77
2021/09/26 03:04:04;;;;;;;;;12.33;12.33;;;;;15.67;79.23;101262.97;5164994;27;9438;-76
2021/09/26 03:06:59;;;;;;;;;11.00;9.67;;;;;15.57;80.16;101258.69;5162458;27;9164;-78
2021/09/26 03:09:55;;;;;;;;;15.00;15.00;;;;;15.60;80.15;101260.75;5174213;27;9178;-76
2021/09/26 03:12:50;;;;;;;;;14.00;13.00;;;;;15.65;80.17;101256.94;5174594;27;9351;-75
2021/09/26 03:15:46;;;;;;;;;12.00;12.00;;;;;15.61;80.44;101265.19;5155320;27;9143;-75
2021/09/26 03:18:42;;;;;;;;;13.00;13.00;;;;;15.70;80.34;101268.66;5169640;27;9153;-76
2021/09/26 03:21:37;;;;;;;;;16.00;16.00;;;;;15.66;80.66;101267.75;5154363;27;9272;-77
2021/09/26 03:24:34;;;;;;;;;13.67;13.67;;;;;15.79;80.25;101274.09;5158295;27;9291;-76
2021/09/26 03:27:29;;;;;;;;;15.00;13.67;;;;;15.71;80.60;101270.28;5158739;27;9278;-75
2021/09/26 03:30:25;;;;;;;;;17.33;16.00;;;;;15.68;80.70;101270.97;5175816;27;9207;-76
2021/09/26 03:33:21;;;;;;;;;12.67;12.67;;;;;15.68;81.09;101275.75;5161836;27;9157;-76
2021/09/26 03:36:16;;;;;;;;;16.67;15.00;;;;;15.68;80.70;101278.53;5174515;27;9314;-77
2021/09/26 03:39:12;;;;;;;;;12.00;12.00;;;;;15.80;80.15;101276.56;5155599;27;9311;-76
2021/09/26 03:42:07;;;;;;;;;18.33;18.33;;;;;15.76;80.60;101281.19;5141158;27;9268;-75
2021/09/26 03:45:05;;;;;;;;;12.00;12.00;;;;;15.84;80.29;101291.41;5153991;27;9225;-76
2021/09/26 03:48:01;;;;;;;;;14.00;13.00;;;;;15.67;81.09;101297.25;5154704;27;9311;-77
2021/09/26 03:50:56;;;;;;;;;14.33;14.33;;;;;15.69;80.97;101292.13;5154616;27;9362;-77
2021/09/26 03:53:52;;;;;;;;;14.00;14.00;;;;;15.77;80.80;101295.94;5154250;27;9400;-77
2021/09/26 03:56:48;;;;;;;;;14.33;13.00;;;;;15.84;80.57;101299.75;5154886;27;9456;-76
2021/09/26 03:59:59;;;;;;;;;16.00;16.00;;;;;15.84;80.48;101305.34;5143614;27;9234;-75
2021/09/26 04:02:55;;;;;;;;;12.67;12.00;;;;;15.80;80.83;101296.06;5174479;27;10038;-75
2021/09/26 04:05:50;;;;;;;;;10.67;10.67;;;;;15.88;80.87;101297.09;5166412;27;9284;-75
2021/09/26 04:08:46;;;;;;;;;15.00;15.00;;;;;15.87;80.60;101289.88;5175200;27;9296;-76
2021/09/26 04:11:14;;;;;;;;;14.00;14.00;;;;;15.95;80.57;101299.28;5158098;27;9435;-76
2021/09/26 04:14:09;;;;;;;;;14.00;13.33;;;;;15.99;80.70;101297.41;5174889;27;10128;-76
2021/09/26 04:17:05;;;;;;;;;15.00;15.00;;;;;16.01;80.76;101286.69;5158672;27;9051;-77
2021/09/26 04:20:02;;;;;;;;;16.33;16.00;;;;;15.93;81.25;101282.88;5154049;27;9247;-79
2021/09/26 04:22:57;;;;;;;;;16.33;16.33;;;;;15.97;81.20;101286.63;5153848;27;9279;-76
2021/09/26 04:25:40;;;;;;;;;16.00;16.00;;;;;16.05;80.97;101290.44;5153631;27;9449;-77
2021/09/26 04:28:07;;;;;;;;;14.33;14.33;;;;;16.08;80.92;101286.91;5164486;27;9160;-75
2021/09/26 04:31:03;;;;;;;;;14.00;14.00;;;;;16.12;81.05;101285.06;5156949;27;9231;-76
2021/09/26 04:33:59;;;;;;;;;18.33;18.33;;;;;16.20;81.01;101295.25;5159030;27;9255;-76
2021/09/26 04:36:55;;;;;;;;;14.67;14.67;;;;;16.13;81.66;101289.47;5174859;27;9369;-79
2021/09/26 04:39:51;;;;;;;;;16.33;16.33;;;;;16.18;81.30;101292.03;5167025;27;9236;-77
2021/09/26 04:42:47;;;;;;;;;15.33;15.33;;;;;16.26;80.97;101291.06;5159347;27;9216;-76
2021/09/26 04:45:42;;;;;;;;;18.33;16.33;;;;;16.34;81.28;101301.25;5140127;27;8913;-76
2021/09/26 04:48:38;;;;;;;;;16.33;16.33;;;;;16.37;81.37;101296.94;5153102;27;9059;-76
2021/09/26 04:51:33;;;;;;;;;16.00;16.00;;;;;16.50;80.72;101300.50;5159595;27;8972;-77
2021/09/26 04:54:29;;;;;;;;;16.33;15.00;;;;;16.62;80.65;101294.81;5149123;27;9239;-77
2021/09/26 04:57:25;;;;;;;;;20.00;18.00;;;;;16.50;81.17;101292.94;5163258;27;9142;-77
2021/09/26 05:00:21;;;;;;;;;17.67;17.33;;;;;16.65;80.81;101294.13;5163933;27;9755;-77
2021/09/26 05:03:17;;;;;;;;;17.33;17.33;;;;;16.70;80.86;101302.25;5163148;27;9744;-75
2021/09/26 05:06:14;;;;;;;;;18.00;17.50;;;;;16.80;80.75;101289.78;5160318;27;9053;-76
2021/09/26 05:09:10;;;;;;;;;16.67;16.67;;;;;16.88;80.57;101292.38;5165150;27;8836;-77
2021/09/26 05:12:06;;;;;;;;;19.00;19.00;;;;;16.89;80.94;101290.41;5160723;27;9052;-78
2021/09/26 05:14:34;;;;;;;;;18.00;16.33;;;;;17.00;80.46;101293.47;5163484;27;9001;-77
2021/09/26 05:17:31;;;;;;;;;15.50;15.50;;;;;17.15;79.89;101303.84;5162465;27;8994;-75
2021/09/26 05:20:27;;;;;;;;;19.33;19.33;;;;;17.17;79.24;101302.28;5161827;27;8844;-77
2021/09/26 05:23:04;;;;;;;;;18.50;18.25;;;;;17.17;79.78;101301.47;5156945;27;9762;-78
2021/09/26 05:26:00;;;;;;;;;15.00;15.00;;;;;17.24;78.97;101307.25;5170126;27;8847;-76
2021/09/26 05:28:55;;;;;;;;;19.00;17.67;;;;;17.31;79.42;101301.84;5174237;27;8894;-77
2021/09/26 05:31:51;;;;;;;;;16.33;16.33;;;;;17.32;79.41;101308.25;5157743;27;8912;-73
2021/09/26 05:34:47;;;;;;;;;13.33;13.33;;;;;17.43;79.26;101321.31;5154998;27;8931;-72
2021/09/26 05:37:14;;;;;;;;;17.75;16.75;;;;;17.43;79.23;101312.94;5159085;27;8918;-73
2021/09/26 05:40:10;;;;;;;;;16.25;16.25;;;;;17.50;79.12;101317.88;5157296;27;8943;-73
2021/09/26 05:43:06;;;;;;;;;13.50;13.50;;;;;17.55;79.20;101311.19;5176196;27;8815;-73
2021/09/26 05:46:01;;;;;;;;;18.50;18.50;;;;;17.51;79.07;101313.91;5178027;27;8866;-73
2021/09/26 05:48:57;;;;;;;;;16.50;16.25;;;;;17.41;79.81;101311.69;5177888;27;8823;-73
2021/09/26 05:51:52;;;;;;;;;19.00;19.00;;;;;17.44;80.10;101317.34;5177803;27;8823;-73
2021/09/26 05:54:48;;;;;;;;;15.50;15.50;;;;;17.46;81.00;101325.38;5175943;27;8834;-73
2021/09/26 05:57:15;;;;;;;;;17.25;17.25;;;;;17.41;82.20;101331.25;5170374;27;8829;-73
2021/09/26 06:00:11;;;;;;;;;14.75;14.75;;;;;17.40;82.60;101322.03;5175753;27;8831;-73
2021/09/26 06:03:11;;;;;;;;;18.67;17.67;;;;;17.45;82.34;101318.16;5175066;27;8922;-72
2021/09/26 06:06:08;;;;;;;;;18.00;18.00;;;;;17.46;82.28;101317.78;5144536;27;8918;-73
2021/09/26 06:09:03;;;;;;;;;20.25;20.25;;;;;17.34;83.17;101312.31;5156560;27;8893;-73
2021/09/26 06:11:59;;;;;;;;;17.25;16.75;;;;;17.37;83.87;101319.97;5156589;27;8833;-73
2021/09/26 06:14:54;;;;;;;;;21.25;21.25;;;;;17.28;84.24;101327.72;5143422;27;8801;-73
2021/09/26 06:17:50;;;;;;;;;18.50;18.50;;;;;17.31;84.74;101328.97;5156477;27;9605;-73
2021/09/26 06:20:47;;;;;;;;;17.67;17.67;;;;;17.33;84.68;101332.22;5156051;27;8821;-73
2021/09/26 06:23:43;;;;;;;;;15.75;14.25;;;;;17.46;84.38;101325.38;5156253;27;9870;-74
2021/09/26 06:26:39;;;;;;;;;15.75;14.75;;;;;17.57;85.63;101334.03;5156309;27;8828;-73
2021/09/26 06:29:34;;;;;;;;;17.00;17.00;;;;;17.80;85.67;101329.41;5158688;27;8837;-71
2021/09/26 06:32:31;;;;;;;;;17.75;17.75;;;;;18.04;84.09;101325.56;5163969;27;8813;-74
2021/09/26 06:35:27;;;;;;;;;15.75;14.25;;;;;18.15;83.55;101326.59;5142202;27;8856;-72
2021/09/26 06:38:22;;;;;;;;;15.00;15.00;;;;;18.25;82.30;101328.00;5142352;27;8825;-76
2021/09/26 06:41:19;;;;;;;;;13.75;12.75;;;;;18.27;82.58;101334.84;5158350;27;8912;-77
2021/09/26 06:44:14;;;;;;;;;14.00;14.00;;;;;18.34;81.34;101334.19;5163950;27;8805;-72
2021/09/26 06:47:10;;;;;;;;;15.75;15.75;;;;;18.60;80.94;101328.72;5154348;27;8849;-75
2021/09/26 06:50:07;;;;;;;;;17.50;16.75;;;;;18.68;79.99;101328.91;5154818;27;8927;-74
2021/09/26 06:53:02;;;;;;;;;14.50;14.50;;;;;18.93;78.20;101332.16;5142009;27;8943;-75
2021/09/26 06:55:58;;;;;;;;;15.25;15.25;;;;;19.16;79.30;101327.38;5155603;27;8836;-75
2021/09/26 06:58:53;;;;;;;;;14.25;14.25;;;;;19.56;78.46;101332.47;5155501;27;8829;-75
2021/09/26 07:01:49;;;;;;;;;14.25;14.25;;;;;19.57;74.51;101319.28;5141916;27;8935;-73
2021/09/26 07:04:44;;;;;;;;;13.00;13.00;;;;;19.75;76.95;101313.94;5165184;27;9579;-73
2021/09/26 07:07:44;;;;;;;;;14.75;14.75;;;;;19.61;74.85;101320.94;5172212;27;8818;-75
2021/09/26 07:10:15;;;;;;;;;16.75;15.75;;;;;19.87;75.65;101322.13;5146511;27;8894;-75
2021/09/26 07:12:46;;;;;;;;;14.00;14.00;;;;;19.78;72.80;101319.56;5177291;27;8837;-71
2021/09/26 07:15:41;;;;;;;;;10.50;10.50;;;;;19.71;73.63;101322.31;5154461;27;8863;-73
2021/09/26 07:18:37;;;;;;;;;3.25;3.25;;;;;19.67;72.82;101322.25;5161939;27;9549;-72
2021/09/26 07:21:32;;;;;;;;;10.50;10.50;;;;;19.60;72.59;101322.13;5160515;27;8888;-72
2021/09/26 07:24:14;;;;;;;;;12.25;12.25;;;;;19.80;72.75;101313.59;5175715;27;8880;-72
2021/09/26 07:26:42;;;;;;;;;11.67;11.67;;;;;19.80;72.78;101317.22;5175281;27;8881;-73
2021/09/26 07:29:38;;;;;;;;;15.50;15.50;;;;;19.97;71.99;101318.66;5175839;27;8842;-73
2021/09/26 07:32:33;;;;;;;;;11.00;11.00;;;;;20.10;71.53;101316.44;5175724;27;9622;-73
2021/09/26 07:35:29;;;;;;;;;12.50;12.50;;;;;20.16;70.07;101317.69;5158876;27;8830;-73
2021/09/26 07:38:25;;;;;;;;;11.50;11.50;;;;;20.26;70.07;101320.66;5154586;27;8940;-72
2021/09/26 07:41:21;;;;;;;;;10.00;10.00;;;;;20.56;69.80;101308.63;5166463;27;8822;-73
2021/09/26 07:44:17;;;;;;;;;11.75;11.75;;;;;20.88;69.13;101319.38;5170098;27;8807;-73
2021/09/26 07:46:44;;;;;;;;;6.50;6.50;;;;;21.03;67.97;101315.50;5157575;27;8814;-73
2021/09/26 07:49:40;;;;;;;;;11.75;11.75;;;;;21.12;67.58;101324.44;5175130;27;8815;-73
2021/09/26 07:52:36;;;;;;;;;12.00;12.00;;;;;21.29;67.12;101315.38;5166232;27;8830;-73
2021/09/26 07:55:31;;;;;;;;;12.00;12.00;;;;;21.35;65.53;101322.25;5175186;27;8939;-72
2021/09/26 07:58:27;;;;;;;;;9.75;9.75;;;;;21.56;64.37;101326.44;5172863;27;8849;-72
2021/09/26 08:01:23;;;;;;;;;10.75;10.75;;;;;21.62;64.61;101324.88;5174624;27;8819;-73
2021/09/26 08:03:50;;;;;;;;;7.50;7.50;;;;;21.85;65.18;101325.44;5153357;27;8875;-73
2021/09/26 08:06:46;;;;;;;;;8.50;8.50;;;;;22.08;63.88;101328.03;5159493;27;9603;-73
2021/09/26 08:09:42;;;;;;;;;21.25;21.25;;;;;21.93;62.75;101334.75;5173191;27;8945;-73
2021/09/26 08:12:37;;;;;;;;;11.00;11.00;;;;;22.16;62.11;101337.31;5155255;27;8833;-73
2021/09/26 08:15:33;;;;;;;;;6.25;6.25;;;;;22.14;61.39;101334.88;5154075;27;8817;-73
2021/09/26 08:18:28;;;;;;;;;7.50;7.50;;;;;22.18;61.14;101332.91;5158355;27;8860;-73
2021/09/26 08:21:24;;;;;;;;;8.75;8.75;;;;;22.14;61.79;101336.88;5162745;27;9027;-73
2021/09/26 08:24:20;;;;;;;;;7.00;7.00;;;;;21.97;60.53;101331.94;5166564;27;8825;-73
2021/09/26 08:26:47;;;;;;;;;7.00;7.00;;;;;22.01;61.06;101321.50;5167527;27;8847;-71
2021/09/26 08:29:43;;;;;;;;;9.00;9.00;;;;;22.07;60.70;101329.16;5172566;27;8811;-73
2021/09/26 08:32:39;;;;;;;;;11.00;11.00;;;;;21.95;62.03;101321.06;5157216;27;8933;-70
2021/09/26 08:35:35;;;;;;;;;10.50;10.50;;;;;22.17;60.89;101336.91;5173091;27;8841;-70
2021/09/26 08:38:03;;;;;;;;;10.50;10.50;;;;;22.08;60.91;101324.38;5156683;27;8846;-73
2021/09/26 08:40:59;;;;;;;;;10.25;10.25;;;;;21.63;61.74;101321.69;5160782;27;9003;-73
2021/09/26 08:43:55;;;;;;;;;10.00;10.00;;;;;21.75;61.84;101325.38;5143734;27;8834;-73
2021/09/26 08:46:52;;;;;;;;;10.25;10.25;;;;;21.56;62.61;101323.63;5173635;27;8838;-72
2021/09/26 08:49:48;;;;;;;;;10.50;9.50;;;;;21.80;62.19;101317.34;5160729;27;8838;-73
2021/09/26 08:52:45;;;;;;;;;8.50;8.50;;;;;21.77;62.63;101325.78;5156180;27;8811;-72
2021/09/26 08:55:42;;;;;;;;;9.25;9.25;;;;;21.77;62.19;101318.13;5141384;27;8946;-73
2021/09/26 08:58:10;;;;;;;;;10.00;10.00;;;;;21.72;61.56;101317.72;5155172;27;8834;-73
2021/09/26 09:01:06;;;;;;;;;6.75;6.75;;;;;21.77;61.88;101315.31;5167978;27;8827;-72
2021/09/26 09:04:02;;;;;;;;;10.25;10.25;;;;;21.87;61.65;101314.59;5153559;27;8870;-73
2021/09/26 09:07:03;;;;;;;;;8.25;8.25;;;;;21.77;61.25;101306.88;5153606;27;8821;-72
2021/09/26 09:10:00;;;;;;;;;8.00;8.00;;;;;22.03;59.59;101305.81;5141718;27;8844;-72
2021/09/26 09:12:56;;;;;;;;;6.00;6.00;;;;;21.98;59.16;101311.03;5157551;27;8821;-74
2021/09/26 09:15:59;;;;;;;;;7.75;7.75;;;;;22.02;58.91;101309.03;5147089;27;8953;-73
2021/09/26 09:18:56;;;;;;;;;8.00;7.75;;;;;21.98;57.33;101311.81;5177127;27;8927;-73
2021/09/26 09:22:07;;;;;;;;;6.00;6.00;;;;;21.92;57.10;101313.38;5178515;27;8867;-73
2021/09/26 09:25:03;;;;;;;;;6.40;6.40;;;;;21.84;56.63;101308.91;5160423;27;8866;-73
2021/09/26 09:27:59;;;;;;;;;6.25;6.25;;;;;21.87;56.84;101311.78;5173577;27;9556;-73
2021/09/26 09:31:03;;;;;;;;;5.80;5.80;;;;;21.76;56.30;101305.25;5178219;27;8854;-73
2021/09/26 09:34:04;;;;;;;;;7.50;7.50;;;;;21.62;56.09;101314.44;5157981;27;8836;-73
2021/09/26 09:37:15;;;;;;;;;6.00;6.00;;;;;21.83;55.52;101313.75;5156703;27;8837;-73
2021/09/26 09:40:19;;;;;;;;;6.00;6.00;;;;;22.66;54.63;101309.31;5171282;27;8937;-73
2021/09/26 09:43:14;;;;;;;;;5.60;5.60;;;;;23.33;52.30;101314.28;5177731;27;8859;-73
2021/09/26 09:46:10;;;;;;;;;6.00;6.00;;;;;23.54;50.57;101302.97;5164061;27;8904;-73
2021/09/26 09:49:19;;;;;;;;;7.40;7.40;;;;;23.50;50.56;101310.63;5164191;27;8830;-74
2021/09/26 09:52:14;;;;;;;;;5.60;5.60;;;;;23.07;50.46;101309.81;5177750;27;8899;-73
2021/09/26 09:55:15;;;;;;;;;4.60;4.60;;;;;23.06;50.18;101316.66;5156304;27;8845;-73
2021/09/26 09:58:16;;;;;;;;;6.00;6.00;;;;;22.47;49.12;101313.31;5156084;27;8829;-73
2021/09/26 10:01:16;;;;;;;;;4.20;4.20;;;;;22.35;50.49;101311.63;5156065;27;8995;-72
2021/09/26 10:04:14;;;;;;;;;6.20;6.20;;;;;23.04;49.19;101316.25;5148317;27;8829;-74
2021/09/26 10:07:30;;;;;;;;;4.00;4.00;;;;;23.44;48.75;101302.97;5155638;27;9666;-73
2021/09/26 10:09:58;;;;;;;;;3.40;3.40;;;;;24.01;47.62;101288.78;5157584;27;8906;-73
2021/09/26 10:13:10;;;;;;;;;6.00;6.00;;;;;23.61;47.83;101295.72;5156023;27;8821;-72
2021/09/26 10:15:40;;;;;;;;;4.80;4.80;;;;;23.55;47.37;101304.56;5157865;27;8852;-72
2021/09/26 10:18:08;;;;;;;;;4.80;4.80;;;;;23.36;48.27;101307.00;5157566;27;8817;-73
2021/09/26 10:20:36;;;;;;;;;6.80;6.60;;;;;23.40;48.23;101299.34;5157395;27;8918;-74
2021/09/26 10:23:04;;;;;;;;;6.60;6.60;;;;;23.84;46.69;101299.69;5157345;27;9566;-73
2021/09/26 10:25:32;;;;;;;;;5.80;5.80;;;;;24.26;44.78;101291.50;5157509;27;8850;-73
2021/09/26 10:28:00;;;;;;;;;6.20;6.20;;;;;24.82;44.48;101284.72;5157588;27;8914;-74
2021/09/26 10:30:28;;;;;;;;;4.40;4.40;;;;;25.08;43.97;101289.03;5157378;27;8829;-74
2021/09/26 10:32:59;;;;;;;;;5.20;5.20;;;;;25.38;43.87;101281.88;5157266;27;8844;-73
2021/09/26 10:35:27;;;;;;;;;6.40;6.40;;;;;25.26;42.91;101285.25;5157248;27;8825;-72
2021/09/26 10:37:56;;;;;;;;;5.00;5.00;;;;;24.88;43.91;101288.75;5157279;27;8902;-72
2021/09/26 10:40:23;;;;;;;;;4.80;4.80;;;;;24.61;44.54;101290.53;5155842;27;8813;-72
2021/09/26 10:42:51;;;;;;;;;5.60;5.60;;;;;24.30;44.80;101292.28;5156886;27;8842;-72
2021/09/26 10:45:24;;;;;;;;;5.60;5.60;;;;;24.01;44.24;101297.25;5156969;27;8825;-72
2021/09/26 10:47:54;;;;;;;;;5.00;5.00;;;;;24.54;44.00;101305.53;5157093;27;8853;-72
2021/09/26 10:50:38;;;;;;;;;4.60;4.60;;;;;25.14;42.32;101300.69;5157002;27;8845;-72
2021/09/26 10:53:12;;;;;;;;;5.00;4.20;;;;;24.87;42.04;101309.75;5140337;27;8825;-73
2021/09/26 10:55:43;;;;;;;;;3.00;3.00;;;;;24.61;41.30;101297.00;5159357;27;8811;-73
2021/09/26 10:58:16;;;;;;;;;4.20;4.20;;;;;24.58;42.03;101295.00;5177825;27;8827;-72
2021/09/26 11:01:01;;;;;;;;;3.40;3.20;;;;;25.11;40.29;101293.84;5177471;27;8934;-72
2021/09/26 11:03:35;;;;;;;;;5.60;5.60;;;;;25.37;41.48;101291.59;5177759;27;8818;-72
2021/09/26 11:06:28;;;;;;;;;4.80;4.80;;;;;25.36;40.96;101284.34;5159155;27;8822;-72
2021/09/26 11:09:00;;;;;;;;;6.20;6.20;;;;;25.83;40.07;101268.50;5158736;27;8831;-73
2021/09/26 11:11:31;;;;;;;;;6.20;6.20;;;;;25.73;40.26;101266.59;5177480;27;8830;-73
2021/09/26 11:13:59;;;;;;;;;5.20;5.20;;;;;25.09;40.90;101273.66;5177280;27;8833;-72
2021/09/26 11:16:47;;;;;;;;;3.60;3.60;;;;;24.83;42.70;101272.19;5177422;27;9657;-73
2021/09/26 11:19:17;;;;;;;;;6.80;6.80;;;;;24.73;42.44;101281.56;5177258;27;8827;-72
2021/09/26 11:21:50;;;;;;;;;4.20;4.20;;;;;24.51;42.82;101289.38;5159069;27;8849;-72
2021/09/26 11:24:18;;;;;;;;;4.40;4.40;;;;;24.98;41.65;101281.38;5177395;27;8823;-73
2021/09/26 11:27:08;;;;;;;;;4.20;4.20;;;;;25.73;41.81;101281.56;5177118;27;8961;-73
2021/09/26 11:29:39;;;;;;;;;6.60;6.60;;;;;26.10;39.73;101277.09;5127018;27;8842;-72
2021/09/26 11:32:27;;;;;;;;;5.60;5.60;;;;;26.29;39.62;101272.81;5157892;27;8835;-73
2021/09/26 11:34:58;;;;;;;;;4.00;4.00;;;;;26.02;40.25;101281.25;5158731;27;8854;-73
2021/09/26 11:37:35;;;;;;;;;4.80;4.80;;;;;25.55;39.53;101278.09;5158622;27;8903;-72
2021/09/26 11:40:09;;;;;;;;;5.80;5.80;;;;;25.29;39.99;101282.38;5158211;27;8915;-73
2021/09/26 11:42:40;;;;;;;;;5.80;5.80;;;;;25.02;40.96;101290.66;5176598;27;8854;-71
2021/09/26 11:45:11;;;;;;;;;5.80;5.80;;;;;25.04;40.01;101285.41;5177008;27;8846;-73
2021/09/26 11:47:38;;;;;;;;;4.40;4.40;;;;;25.67;39.85;101288.06;5158412;27;8830;-73
2021/09/26 11:50:12;;;;;;;;;4.80;4.80;;;;;25.54;38.74;101289.84;5158459;27;8866;-73
2021/09/26 11:52:43;;;;;;;;;5.20;5.20;;;;;25.82;38.40;101283.91;5176529;27;8819;-73
2021/09/26 11:55:13;;;;;;;;;6.60;6.60;;;;;25.93;39.40;101283.78;5176600;27;8838;-73
2021/09/26 11:57:44;;;;;;;;;5.80;5.80;;;;;26.19;39.70;101285.09;5158300;27;8858;-73
2021/09/26 12:00:24;;;;;;;;;4.40;4.40;;;;;26.60;36.84;101282.94;5176623;27;8835;-73
2021/09/26 12:02:52;;;;;;;;;5.80;5.80;;;;;26.48;36.89;101283.53;5176307;27;8841;-73
2021/09/26 12:05:34;;;;;;;;;4.80;4.80;;;;;25.80;35.65;101288.38;5176618;27;8827;-73
2021/09/26 12:08:03;;;;;;;;;7.20;7.20;;;;;25.68;36.19;101286.84;5158043;27;9563;-73
2021/09/26 12:10:32;;;;;;;;;5.40;5.40;;;;;25.42;37.29;101288.34;5158117;27;8903;-73
2021/09/26 12:13:27;;;;;;;;;6.60;6.60;;;;;25.11;37.80;101296.69;5157968;27;8819;-73
2021/09/26 12:15:54;;;;;;;;;2.80;2.80;;;;;24.34;39.21;101293.91;5154351;27;8871;-73
2021/09/26 12:18:24;;;;;;;;;5.40;5.40;;;;;25.01;39.61;101294.72;5176167;27;8815;-73
2021/09/26 12:21:09;;;;;;;;;8.60;8.60;;;;;25.37;36.85;101297.25;5176283;27;8854;-74
2021/09/26 12:24:00;;;;;;;;;5.20;5.20;;;;;25.27;37.21;101293.31;5157945;27;8818;-74
2021/09/26 12:26:36;;;;;;;;;7.20;7.20;;;;;25.29;37.74;101296.53;5176249;27;8858;-73
2021/09/26 12:29:04;;;;;;;;;6.80;6.80;;;;;25.60;37.72;101305.16;5176276;27;8885;-73
2021/09/26 12:31:33;;;;;;;;;8.40;8.40;;;;;25.18;38.67;101290.97;5175952;27;9663;-72
2021/09/26 12:34:02;;;;;;;;;7.60;7.60;;;;;25.58;37.59;101291.41;5176063;27;8966;-73
2021/09/26 12:36:36;;;;;;;;;7.20;7.20;;;;;25.04;37.51;101293.91;5175994;27;8845;-73
2021/09/26 12:39:07;;;;;;;;;6.00;6.00;;;;;24.71;38.13;101292.50;5176004;27;8830;-73
2021/09/26 12:41:38;;;;;;;;;5.80;5.80;;;;;24.34;40.09;101298.75;5175856;27;8862;-75
2021/09/26 12:44:10;;;;;;;;;6.80;6.80;;;;;24.12;39.94;101304.47;5175517;27;8826;-73
2021/09/26 12:46:43;;;;;;;;;7.80;7.80;;;;;23.87;39.88;101294.47;5157210;27;8837;-73
2021/09/26 12:49:21;;;;;;;;;4.40;4.40;;;;;23.79;39.39;101307.78;5157765;27;8931;-73
2021/09/26 12:51:55;;;;;;;;;5.00;5.00;;;;;24.09;39.90;101302.47;5175541;27;9583;-73
2021/09/26 12:54:36;;;;;;;;;5.20;5.20;;;;;24.36;37.48;101301.97;5175819;27;9583;-73
2021/09/26 12:57:10;;;;;;;;;2.80;2.80;;;;;24.29;37.59;101299.94;5175762;27;8835;-73
2021/09/26 12:59:44;;;;;;;;;5.60;5.60;;;;;24.51;37.32;101302.72;5175648;27;9576;-73
2021/09/26 13:02:17;;;;;;;;;6.20;6.20;;;;;24.55;37.47;101295.03;5175456;27;8903;-73
2021/09/26 13:05:01;;;;;;;;;6.80;6.80;;;;;24.74;37.64;101299.34;5175762;27;8846;-73
2021/09/26 13:07:30;;;;;;;;;7.80;7.80;;;;;25.28;37.74;101294.13;5174415;27;8819;-73